sensor_id;sensor_type;location;lat;lon;timestamp;P1;durP1;ratioP1;P2;durP2;ratioP2
47273;SDS011;33007;49.082;19.306;2022-11-15T11:38:50;25.77;;;17.50;;
47273;SDS011;33007;49.082;19.306;2022-11-15T11:44:43;25.95;;;16.63;;
47273;SDS011;33007;49.082;19.306;2022-11-15T11:47:32;24.33;;;17.17;;
47273;SDS011;33007;49.082;19.306;2022-11-15T11:50:13;23.77;;;16.75;;
47273;SDS011;33007;49.082;19.306;2022-11-15T11:55:49;23.35;;;17.20;;
47273;SDS011;33007;49.082;19.306;2022-11-15T11:58:29;21.05;;;16.40;;
47273;SDS011;33007;49.082;19.306;2022-11-15T12:01:08;24.63;;;17.30;;
47273;SDS011;33007;49.082;19.306;2022-11-15T12:03:48;23.58;;;17.48;;
47273;SDS011;33007;49.082;19.306;2022-11-15T12:11:54;44.67;;;19.90;;
47273;SDS011;33007;49.082;19.306;2022-11-15T12:14:26;26.23;;;17.90;;
47273;SDS011;33007;49.082;19.306;2022-11-15T12:17:16;39.88;;;17.70;;
47273;SDS011;33007;49.082;19.306;2022-11-15T12:23:37;27.33;;;17.65;;
47273;SDS011;33007;49.082;19.306;2022-11-15T12:26:24;27.48;;;17.33;;
47273;SDS011;33007;49.082;19.306;2022-11-15T12:29:02;27.10;;;17.42;;
47273;SDS011;33007;49.082;19.306;2022-11-15T12:31:42;162.15;;;25.20;;
47273;SDS011;33007;49.082;19.306;2022-11-15T12:36:45;27.52;;;19.33;;
47273;SDS011;33007;49.082;19.306;2022-11-15T12:39:12;28.95;;;19.02;;
47273;SDS011;33007;49.082;19.306;2022-11-15T12:41:40;41.60;;;19.63;;
47273;SDS011;33007;49.082;19.306;2022-11-15T12:44:11;27.75;;;19.58;;
47273;SDS011;33007;49.082;19.306;2022-11-15T13:02:33;29.83;;;18.58;;
47273;SDS011;33007;49.082;19.306;2022-11-15T13:17:46;35.38;;;19.05;;
47273;SDS011;33007;49.082;19.306;2022-11-15T13:22:42;41.38;;;18.30;;
47273;SDS011;33007;49.082;19.306;2022-11-15T13:28:02;34.85;;;19.13;;
47273;SDS011;33007;49.082;19.306;2022-11-15T13:30:36;38.22;;;19.95;;
47273;SDS011;33007;49.082;19.306;2022-11-15T13:33:08;26.98;;;19.45;;
47273;SDS011;33007;49.082;19.306;2022-11-15T13:35:39;29.67;;;19.50;;
47273;SDS011;33007;49.082;19.306;2022-11-15T13:38:11;27.55;;;19.27;;
47273;SDS011;33007;49.082;19.306;2022-11-15T13:40:45;30.98;;;20.48;;
47273;SDS011;33007;49.082;19.306;2022-11-15T13:43:31;138.45;;;25.48;;
47273;SDS011;33007;49.082;19.306;2022-11-15T13:48:32;33.88;;;24.20;;
47273;SDS011;33007;49.082;19.306;2022-11-15T13:51:07;41.42;;;25.83;;
47273;SDS011;33007;49.082;19.306;2022-11-15T13:57:14;38.75;;;25.80;;
47273;SDS011;33007;49.082;19.306;2022-11-15T13:59:48;36.60;;;25.55;;
47273;SDS011;33007;49.082;19.306;2022-11-15T14:02:18;37.47;;;26.60;;
47273;SDS011;33007;49.082;19.306;2022-11-15T14:07:20;36.00;;;24.85;;
47273;SDS011;33007;49.082;19.306;2022-11-15T14:09:47;55.20;;;24.60;;
47273;SDS011;33007;49.082;19.306;2022-11-15T14:14:50;37.58;;;24.65;;
47273;SDS011;33007;49.082;19.306;2022-11-15T14:17:19;34.70;;;25.20;;
47273;SDS011;33007;49.082;19.306;2022-11-15T14:19:57;54.58;;;25.58;;
47273;SDS011;33007;49.082;19.306;2022-11-15T14:22:27;46.97;;;25.83;;
47273;SDS011;33007;49.082;19.306;2022-11-15T14:25:12;62.00;;;25.58;;
47273;SDS011;33007;49.082;19.306;2022-11-15T14:27:40;39.13;;;24.27;;
47273;SDS011;33007;49.082;19.306;2022-11-15T14:30:16;36.65;;;26.95;;
47273;SDS011;33007;49.082;19.306;2022-11-15T14:35:17;32.75;;;24.17;;
47273;SDS011;33007;49.082;19.306;2022-11-15T14:37:46;33.42;;;25.23;;
47273;SDS011;33007;49.082;19.306;2022-11-15T14:40:14;32.40;;;24.00;;
47273;SDS011;33007;49.082;19.306;2022-11-15T14:42:44;116.32;;;29.33;;
47273;SDS011;33007;49.082;19.306;2022-11-15T14:45:12;34.53;;;25.67;;
47273;SDS011;33007;49.082;19.306;2022-11-15T14:47:44;35.25;;;26.42;;
47273;SDS011;33007;49.082;19.306;2022-11-15T14:50:11;32.03;;;24.27;;
47273;SDS011;33007;49.082;19.306;2022-11-15T14:57:42;31.83;;;24.67;;
47273;SDS011;33007;49.082;19.306;2022-11-15T15:00:08;35.03;;;26.35;;
47273;SDS011;33007;49.082;19.306;2022-11-15T15:02:35;36.83;;;27.27;;
47273;SDS011;33007;49.082;19.306;2022-11-15T15:05:01;33.42;;;25.33;;
47273;SDS011;33007;49.082;19.306;2022-11-15T15:07:37;35.03;;;26.20;;
47273;SDS011;33007;49.082;19.306;2022-11-15T15:10:02;35.95;;;27.08;;
47273;SDS011;33007;49.082;19.306;2022-11-15T15:12:28;112.63;;;29.45;;
47273;SDS011;33007;49.082;19.306;2022-11-15T15:14:55;35.13;;;25.83;;
47273;SDS011;33007;49.082;19.306;2022-11-15T15:17:20;32.92;;;24.13;;
47273;SDS011;33007;49.082;19.306;2022-11-15T15:19:46;34.17;;;25.00;;
47273;SDS011;33007;49.082;19.306;2022-11-15T15:22:15;29.42;;;23.08;;
47273;SDS011;33007;49.082;19.306;2022-11-15T15:24:43;34.05;;;24.27;;
47273;SDS011;33007;49.082;19.306;2022-11-15T15:27:10;39.08;;;29.20;;
47273;SDS011;33007;49.082;19.306;2022-11-15T15:29:36;34.05;;;24.95;;
47273;SDS011;33007;49.082;19.306;2022-11-15T15:32:04;38.92;;;28.23;;
47273;SDS011;33007;49.082;19.306;2022-11-15T15:34:30;36.67;;;25.73;;
47273;SDS011;33007;49.082;19.306;2022-11-15T15:39:49;39.28;;;25.98;;
47273;SDS011;33007;49.082;19.306;2022-11-15T15:42:24;37.03;;;26.63;;
47273;SDS011;33007;49.082;19.306;2022-11-15T15:44:50;38.95;;;27.52;;
47273;SDS011;33007;49.082;19.306;2022-11-15T15:47:20;40.88;;;27.45;;
47273;SDS011;33007;49.082;19.306;2022-11-15T15:56:39;42.47;;;31.00;;
47273;SDS011;33007;49.082;19.306;2022-11-15T15:59:04;45.78;;;31.60;;
47273;SDS011;33007;49.082;19.306;2022-11-15T16:01:30;42.58;;;31.08;;
47273;SDS011;33007;49.082;19.306;2022-11-15T16:03:55;39.35;;;28.92;;
47273;SDS011;33007;49.082;19.306;2022-11-15T16:06:35;45.88;;;30.75;;
47273;SDS011;33007;49.082;19.306;2022-11-15T16:09:03;44.38;;;29.73;;
47273;SDS011;33007;49.082;19.306;2022-11-15T16:11:28;44.30;;;30.23;;
47273;SDS011;33007;49.082;19.306;2022-11-15T16:13:54;46.63;;;33.47;;
47273;SDS011;33007;49.082;19.306;2022-11-15T16:16:19;50.75;;;37.03;;
47273;SDS011;33007;49.082;19.306;2022-11-15T16:18:46;45.05;;;34.17;;
47273;SDS011;33007;49.082;19.306;2022-11-15T16:21:12;49.80;;;36.20;;
47273;SDS011;33007;49.082;19.306;2022-11-15T16:23:37;57.17;;;38.08;;
47273;SDS011;33007;49.082;19.306;2022-11-15T16:26:09;63.08;;;41.35;;
47273;SDS011;33007;49.082;19.306;2022-11-15T16:28:45;55.60;;;41.05;;
47273;SDS011;33007;49.082;19.306;2022-11-15T16:31:11;57.03;;;41.50;;
47273;SDS011;33007;49.082;19.306;2022-11-15T16:33:37;55.97;;;39.65;;
47273;SDS011;33007;49.082;19.306;2022-11-15T16:36:04;59.60;;;40.75;;
47273;SDS011;33007;49.082;19.306;2022-11-15T16:38:31;67.18;;;44.10;;
47273;SDS011;33007;49.082;19.306;2022-11-15T16:40:56;70.47;;;46.17;;
47273;SDS011;33007;49.082;19.306;2022-11-15T16:43:22;76.38;;;49.03;;
47273;SDS011;33007;49.082;19.306;2022-11-15T16:45:48;96.10;;;58.08;;
47273;SDS011;33007;49.082;19.306;2022-11-15T16:48:24;74.13;;;48.50;;
47273;SDS011;33007;49.082;19.306;2022-11-15T16:50:55;90.43;;;55.80;;
47273;SDS011;33007;49.082;19.306;2022-11-15T16:53:22;111.57;;;60.30;;
47273;SDS011;33007;49.082;19.306;2022-11-15T16:55:48;85.47;;;56.35;;
47273;SDS011;33007;49.082;19.306;2022-11-15T16:58:13;88.10;;;57.22;;
47273;SDS011;33007;49.082;19.306;2022-11-15T17:00:38;82.50;;;55.05;;
47273;SDS011;33007;49.082;19.306;2022-11-15T17:03:04;84.32;;;53.72;;
47273;SDS011;33007;49.082;19.306;2022-11-15T17:05:30;86.60;;;56.00;;
47273;SDS011;33007;49.082;19.306;2022-11-15T17:07:55;84.75;;;54.00;;
47273;SDS011;33007;49.082;19.306;2022-11-15T17:10:21;82.03;;;54.30;;
47273;SDS011;33007;49.082;19.306;2022-11-15T17:12:48;88.43;;;55.75;;
47273;SDS011;33007;49.082;19.306;2022-11-15T17:15:14;95.82;;;60.85;;
47273;SDS011;33007;49.082;19.306;2022-11-15T17:17:40;92.72;;;57.42;;
47273;SDS011;33007;49.082;19.306;2022-11-15T17:20:09;107.32;;;66.85;;
47273;SDS011;33007;49.082;19.306;2022-11-15T17:22:39;91.57;;;55.15;;
47273;SDS011;33007;49.082;19.306;2022-11-15T17:25:04;108.75;;;66.05;;
47273;SDS011;33007;49.082;19.306;2022-11-15T17:27:30;104.57;;;67.40;;
47273;SDS011;33007;49.082;19.306;2022-11-15T17:29:56;143.27;;;65.43;;
47273;SDS011;33007;49.082;19.306;2022-11-15T17:32:21;113.95;;;70.65;;
47273;SDS011;33007;49.082;19.306;2022-11-15T17:34:47;103.75;;;68.05;;
47273;SDS011;33007;49.082;19.306;2022-11-15T17:37:13;96.25;;;65.45;;
47273;SDS011;33007;49.082;19.306;2022-11-15T17:39:39;97.13;;;61.15;;
47273;SDS011;33007;49.082;19.306;2022-11-15T17:42:04;90.90;;;59.85;;
47273;SDS011;33007;49.082;19.306;2022-11-15T17:44:30;81.57;;;56.35;;
47273;SDS011;33007;49.082;19.306;2022-11-15T17:46:56;83.70;;;55.53;;
47273;SDS011;33007;49.082;19.306;2022-11-15T17:49:22;94.35;;;62.28;;
47273;SDS011;33007;49.082;19.306;2022-11-15T17:51:49;105.10;;;64.50;;
47273;SDS011;33007;49.082;19.306;2022-11-15T17:54:14;95.45;;;61.50;;
47273;SDS011;33007;49.082;19.306;2022-11-15T17:56:40;96.15;;;60.38;;
47273;SDS011;33007;49.082;19.306;2022-11-15T17:59:06;106.00;;;66.30;;
47273;SDS011;33007;49.082;19.306;2022-11-15T18:01:32;270.48;;;79.72;;
47273;SDS011;33007;49.082;19.306;2022-11-15T18:04:00;146.82;;;81.70;;
47273;SDS011;33007;49.082;19.306;2022-11-15T18:06:29;165.32;;;87.65;;
47273;SDS011;33007;49.082;19.306;2022-11-15T18:08:56;156.63;;;83.65;;
47273;SDS011;33007;49.082;19.306;2022-11-15T18:11:23;151.30;;;81.28;;
47273;SDS011;33007;49.082;19.306;2022-11-15T18:13:54;141.88;;;79.38;;
47273;SDS011;33007;49.082;19.306;2022-11-15T18:16:23;135.35;;;80.00;;
47273;SDS011;33007;49.082;19.306;2022-11-15T18:18:50;134.80;;;81.32;;
47273;SDS011;33007;49.082;19.306;2022-11-15T18:21:49;129.55;;;79.47;;
47273;SDS011;33007;49.082;19.306;2022-11-15T18:24:25;107.53;;;66.88;;
47273;SDS011;33007;49.082;19.306;2022-11-15T18:26:52;137.25;;;68.63;;
47273;SDS011;33007;49.082;19.306;2022-11-15T18:29:18;95.35;;;62.53;;
47273;SDS011;33007;49.082;19.306;2022-11-15T18:31:45;95.15;;;62.55;;
47273;SDS011;33007;49.082;19.306;2022-11-15T18:34:14;90.22;;;60.67;;
47273;SDS011;33007;49.082;19.306;2022-11-15T18:36:39;86.45;;;59.40;;
47273;SDS011;33007;49.082;19.306;2022-11-15T18:39:05;88.90;;;57.88;;
47273;SDS011;33007;49.082;19.306;2022-11-15T18:41:31;86.68;;;57.42;;
47273;SDS011;33007;49.082;19.306;2022-11-15T18:43:58;94.07;;;60.72;;
47273;SDS011;33007;49.082;19.306;2022-11-15T18:46:26;90.68;;;59.72;;
47273;SDS011;33007;49.082;19.306;2022-11-15T18:48:54;86.80;;;57.75;;
47273;SDS011;33007;49.082;19.306;2022-11-15T18:51:23;122.57;;;62.80;;
47273;SDS011;33007;49.082;19.306;2022-11-15T18:53:54;91.40;;;61.13;;
47273;SDS011;33007;49.082;19.306;2022-11-15T18:56:21;88.07;;;59.90;;
47273;SDS011;33007;49.082;19.306;2022-11-15T18:58:49;89.00;;;59.88;;
47273;SDS011;33007;49.082;19.306;2022-11-15T19:01:17;95.38;;;61.30;;
47273;SDS011;33007;49.082;19.306;2022-11-15T19:03:46;89.63;;;60.92;;
47273;SDS011;33007;49.082;19.306;2022-11-15T19:06:25;94.18;;;60.90;;
47273;SDS011;33007;49.082;19.306;2022-11-15T19:08:52;92.60;;;61.33;;
47273;SDS011;33007;49.082;19.306;2022-11-15T19:11:30;85.45;;;56.55;;
47273;SDS011;33007;49.082;19.306;2022-11-15T19:14:00;82.22;;;55.83;;
47273;SDS011;33007;49.082;19.306;2022-11-15T19:16:30;81.67;;;53.57;;
47273;SDS011;33007;49.082;19.306;2022-11-15T19:18:59;83.20;;;54.28;;
47273;SDS011;33007;49.082;19.306;2022-11-15T19:21:26;80.00;;;51.33;;
47273;SDS011;33007;49.082;19.306;2022-11-15T19:23:52;74.40;;;49.78;;
47273;SDS011;33007;49.082;19.306;2022-11-15T19:26:19;70.55;;;48.75;;
47273;SDS011;33007;49.082;19.306;2022-11-15T19:28:49;74.55;;;48.58;;
47273;SDS011;33007;49.082;19.306;2022-11-15T19:31:16;74.18;;;48.63;;
47273;SDS011;33007;49.082;19.306;2022-11-15T19:33:42;89.63;;;49.25;;
47273;SDS011;33007;49.082;19.306;2022-11-15T19:36:17;69.53;;;46.90;;
47273;SDS011;33007;49.082;19.306;2022-11-15T19:38:45;68.72;;;45.03;;
47273;SDS011;33007;49.082;19.306;2022-11-15T19:41:18;76.10;;;48.83;;
47273;SDS011;33007;49.082;19.306;2022-11-15T19:43:45;70.18;;;48.05;;
47273;SDS011;33007;49.082;19.306;2022-11-15T19:46:18;65.28;;;47.92;;
47273;SDS011;33007;49.082;19.306;2022-11-15T19:48:46;73.20;;;48.47;;
47273;SDS011;33007;49.082;19.306;2022-11-15T19:51:12;69.43;;;48.85;;
47273;SDS011;33007;49.082;19.306;2022-11-15T19:53:40;71.75;;;49.92;;
47273;SDS011;33007;49.082;19.306;2022-11-15T19:56:12;74.60;;;50.50;;
47273;SDS011;33007;49.082;19.306;2022-11-15T19:58:39;70.88;;;48.15;;
47273;SDS011;33007;49.082;19.306;2022-11-15T20:01:16;206.25;;;53.03;;
47273;SDS011;33007;49.082;19.306;2022-11-15T20:03:42;71.60;;;47.33;;
47273;SDS011;33007;49.082;19.306;2022-11-15T20:06:09;63.58;;;45.50;;
47273;SDS011;33007;49.082;19.306;2022-11-15T20:08:37;63.15;;;46.00;;
47273;SDS011;33007;49.082;19.306;2022-11-15T20:11:03;70.10;;;47.63;;
47273;SDS011;33007;49.082;19.306;2022-11-15T20:13:29;69.68;;;48.22;;
47273;SDS011;33007;49.082;19.306;2022-11-15T20:15:55;66.00;;;45.38;;
47273;SDS011;33007;49.082;19.306;2022-11-15T20:18:21;85.85;;;55.20;;
47273;SDS011;33007;49.082;19.306;2022-11-15T20:20:48;76.60;;;53.15;;
47273;SDS011;33007;49.082;19.306;2022-11-15T20:23:14;84.43;;;55.88;;
47273;SDS011;33007;49.082;19.306;2022-11-15T20:25:42;84.78;;;54.80;;
47273;SDS011;33007;49.082;19.306;2022-11-15T20:28:09;78.95;;;55.58;;
47273;SDS011;33007;49.082;19.306;2022-11-15T20:30:41;75.35;;;54.00;;
47273;SDS011;33007;49.082;19.306;2022-11-15T20:33:11;89.10;;;62.00;;
47273;SDS011;33007;49.082;19.306;2022-11-15T20:35:39;84.38;;;59.13;;
47273;SDS011;33007;49.082;19.306;2022-11-15T20:38:08;80.10;;;55.13;;
47273;SDS011;33007;49.082;19.306;2022-11-15T20:40:37;81.55;;;55.45;;
47273;SDS011;33007;49.082;19.306;2022-11-15T20:43:03;77.82;;;55.30;;
47273;SDS011;33007;49.082;19.306;2022-11-15T20:45:29;76.90;;;54.08;;
47273;SDS011;33007;49.082;19.306;2022-11-15T20:47:55;75.47;;;52.58;;
47273;SDS011;33007;49.082;19.306;2022-11-15T20:50:22;71.10;;;51.22;;
47273;SDS011;33007;49.082;19.306;2022-11-15T20:52:48;72.88;;;52.13;;
47273;SDS011;33007;49.082;19.306;2022-11-15T20:55:13;72.65;;;52.67;;
47273;SDS011;33007;49.082;19.306;2022-11-15T20:57:39;74.40;;;51.90;;
47273;SDS011;33007;49.082;19.306;2022-11-15T21:00:05;75.63;;;51.65;;
47273;SDS011;33007;49.082;19.306;2022-11-15T21:02:31;72.72;;;50.97;;
47273;SDS011;33007;49.082;19.306;2022-11-15T21:04:57;69.80;;;50.08;;
47273;SDS011;33007;49.082;19.306;2022-11-15T21:07:22;69.80;;;49.63;;
47273;SDS011;33007;49.082;19.306;2022-11-15T21:09:48;70.25;;;48.65;;
47273;SDS011;33007;49.082;19.306;2022-11-15T21:12:32;72.22;;;50.30;;
47273;SDS011;33007;49.082;19.306;2022-11-15T21:14:57;72.70;;;52.80;;
47273;SDS011;33007;49.082;19.306;2022-11-15T21:17:23;67.50;;;49.42;;
47273;SDS011;33007;49.082;19.306;2022-11-15T21:19:48;78.18;;;52.42;;
47273;SDS011;33007;49.082;19.306;2022-11-15T21:22:14;180.73;;;58.83;;
47273;SDS011;33007;49.082;19.306;2022-11-15T21:24:39;88.93;;;60.40;;
47273;SDS011;33007;49.082;19.306;2022-11-15T21:27:05;89.20;;;62.00;;
47273;SDS011;33007;49.082;19.306;2022-11-15T21:29:30;97.10;;;65.55;;
47273;SDS011;33007;49.082;19.306;2022-11-15T21:32:03;85.35;;;58.15;;
47273;SDS011;33007;49.082;19.306;2022-11-15T21:34:30;96.45;;;65.30;;
47273;SDS011;33007;49.082;19.306;2022-11-15T21:36:55;92.80;;;64.38;;
47273;SDS011;33007;49.082;19.306;2022-11-15T21:39:21;92.88;;;66.18;;
47273;SDS011;33007;49.082;19.306;2022-11-15T21:41:46;96.78;;;65.63;;
47273;SDS011;33007;49.082;19.306;2022-11-15T21:44:12;95.85;;;66.38;;
47273;SDS011;33007;49.082;19.306;2022-11-15T21:46:37;87.63;;;62.35;;
47273;SDS011;33007;49.082;19.306;2022-11-15T21:49:03;89.05;;;60.97;;
47273;SDS011;33007;49.082;19.306;2022-11-15T21:51:29;86.82;;;60.10;;
47273;SDS011;33007;49.082;19.306;2022-11-15T21:53:55;90.25;;;62.45;;
47273;SDS011;33007;49.082;19.306;2022-11-15T21:56:22;86.50;;;59.47;;
47273;SDS011;33007;49.082;19.306;2022-11-15T21:58:49;84.75;;;57.35;;
47273;SDS011;33007;49.082;19.306;2022-11-15T22:01:16;82.43;;;55.95;;
47273;SDS011;33007;49.082;19.306;2022-11-15T22:03:59;103.75;;;56.60;;
47273;SDS011;33007;49.082;19.306;2022-11-15T22:06:25;81.10;;;55.45;;
47273;SDS011;33007;49.082;19.306;2022-11-15T22:08:51;89.40;;;59.13;;
47273;SDS011;33007;49.082;19.306;2022-11-15T22:11:16;87.22;;;56.45;;
47273;SDS011;33007;49.082;19.306;2022-11-15T22:13:42;81.13;;;54.90;;
47273;SDS011;33007;49.082;19.306;2022-11-15T22:16:12;103.55;;;55.33;;
47273;SDS011;33007;49.082;19.306;2022-11-15T22:18:38;80.03;;;53.28;;
47273;SDS011;33007;49.082;19.306;2022-11-15T22:21:05;74.38;;;50.78;;
47273;SDS011;33007;49.082;19.306;2022-11-15T22:23:33;75.50;;;50.60;;
47273;SDS011;33007;49.082;19.306;2022-11-15T22:26:00;68.22;;;48.53;;
47273;SDS011;33007;49.082;19.306;2022-11-15T22:28:26;72.10;;;49.08;;
47273;SDS011;33007;49.082;19.306;2022-11-15T22:30:53;71.30;;;49.13;;
47273;SDS011;33007;49.082;19.306;2022-11-15T22:33:19;75.90;;;50.50;;
47273;SDS011;33007;49.082;19.306;2022-11-15T22:35:47;73.95;;;48.90;;
47273;SDS011;33007;49.082;19.306;2022-11-15T22:38:12;76.15;;;50.20;;
47273;SDS011;33007;49.082;19.306;2022-11-15T22:40:38;79.07;;;52.70;;
47273;SDS011;33007;49.082;19.306;2022-11-15T22:43:04;73.50;;;49.65;;
47273;SDS011;33007;49.082;19.306;2022-11-15T22:45:31;72.88;;;49.55;;
47273;SDS011;33007;49.082;19.306;2022-11-15T22:47:57;71.38;;;50.17;;
47273;SDS011;33007;49.082;19.306;2022-11-15T22:50:23;67.43;;;46.35;;
47273;SDS011;33007;49.082;19.306;2022-11-15T22:52:50;72.57;;;48.15;;
47273;SDS011;33007;49.082;19.306;2022-11-15T22:55:15;68.68;;;49.70;;
47273;SDS011;33007;49.082;19.306;2022-11-15T22:57:42;82.88;;;54.50;;
47273;SDS011;33007;49.082;19.306;2022-11-15T23:00:10;71.57;;;47.58;;
47273;SDS011;33007;49.082;19.306;2022-11-15T23:02:37;69.82;;;48.72;;
47273;SDS011;33007;49.082;19.306;2022-11-15T23:05:03;78.57;;;51.33;;
47273;SDS011;33007;49.082;19.306;2022-11-15T23:07:30;77.38;;;49.05;;
47273;SDS011;33007;49.082;19.306;2022-11-15T23:09:55;76.95;;;52.55;;
47273;SDS011;33007;49.082;19.306;2022-11-15T23:12:44;74.45;;;49.38;;
47273;SDS011;33007;49.082;19.306;2022-11-15T23:15:31;74.70;;;48.90;;
47273;SDS011;33007;49.082;19.306;2022-11-15T23:18:15;73.40;;;47.85;;
47273;SDS011;33007;49.082;19.306;2022-11-15T23:20:41;73.05;;;49.30;;
47273;SDS011;33007;49.082;19.306;2022-11-15T23:23:07;69.97;;;48.30;;
47273;SDS011;33007;49.082;19.306;2022-11-15T23:25:32;67.68;;;48.03;;
47273;SDS011;33007;49.082;19.306;2022-11-15T23:27:59;67.30;;;46.08;;
47273;SDS011;33007;49.082;19.306;2022-11-15T23:30:26;71.72;;;49.20;;
47273;SDS011;33007;49.082;19.306;2022-11-15T23:33:13;65.32;;;45.17;;
47273;SDS011;33007;49.082;19.306;2022-11-15T23:35:57;69.97;;;47.17;;
47273;SDS011;33007;49.082;19.306;2022-11-15T23:38:23;67.97;;;47.58;;
47273;SDS011;33007;49.082;19.306;2022-11-15T23:40:50;68.82;;;49.05;;
47273;SDS011;33007;49.082;19.306;2022-11-15T23:43:16;66.25;;;46.45;;
47273;SDS011;33007;49.082;19.306;2022-11-15T23:45:42;69.50;;;47.13;;
47273;SDS011;33007;49.082;19.306;2022-11-15T23:48:08;73.72;;;47.92;;
47273;SDS011;33007;49.082;19.306;2022-11-15T23:50:35;76.03;;;50.40;;
47273;SDS011;33007;49.082;19.306;2022-11-15T23:53:01;77.05;;;49.85;;
47273;SDS011;33007;49.082;19.306;2022-11-15T23:55:27;75.75;;;48.30;;
47273;SDS011;33007;49.082;19.306;2022-11-15T23:57:52;142.15;;;53.25;;
